Time;durP1;ratioP1;P1;durP2;ratioP2;P2;SDS_P1;SDS_P2;PMS_P1;PMS_P2;Temp;Humidity;BMP_temperature;BMP_pressure;BME280_temperature;BME280_humidity;BME280_pressure;Samples;Min_cycle;Max_cycle;Signal;HPM_P1;HPM_P2
2022/08/25 00:00:21;;;;;;;2.95;2.30;;;;;;;22.48;89.25;101880.94;4988160;28;20053;-80
2022/08/25 00:02:49;;;;;;;5.40;2.47;;;;;;;22.50;88.83;101879.94;4982383;28;20441;-80
2022/08/25 00:05:25;;;;;;;6.25;2.33;;;;;;;22.50;88.76;101879.09;4985268;28;20057;-80
2022/08/25 00:07:56;;;;;;;3.40;2.30;;;;;;;22.51;88.32;101876.34;4987665;28;20053;-81
2022/08/25 00:10:25;;;;;;;4.00;2.42;;;;;;;22.50;88.45;101868.34;4958005;28;20054;-81
2022/08/25 00:12:53;;;;;;;7.05;2.72;;;;;;;22.47;87.70;101877.34;4992157;28;20042;-81
2022/08/25 00:15:22;;;;;;;6.70;2.85;;;;;;;22.47;87.58;101869.28;4990259;28;20054;-81
2022/08/25 00:17:51;;;;;;;4.50;2.78;;;;;;;22.45;87.20;101876.50;4996313;28;20042;-81
2022/08/25 00:20:21;;;;;;;4.18;2.45;;;;;;;22.46;87.01;101880.97;4975284;28;20248;-81
2022/08/25 00:22:50;;;;;;;6.75;2.70;;;;;;;22.44;87.24;101877.47;4960296;28;20149;-81
2022/08/25 00:25:19;;;;;;;3.63;2.80;;;;;;;22.41;87.21;101866.78;4938739;28;20043;-81
2022/08/25 00:27:48;;;;;;;6.05;2.70;;;;;;;22.38;86.85;101883.00;4983280;28;20376;-81
2022/08/25 00:30:17;;;;;;;6.70;2.90;;;;;;;22.35;87.22;101888.47;4968969;28;20053;-81
2022/08/25 00:32:45;;;;;;;4.53;2.85;;;;;;;22.31;87.16;101882.31;4996334;28;20285;-79
2022/08/25 00:35:25;;;;;;;3.85;2.50;;;;;;;22.29;86.88;101883.28;4995459;28;20046;-80
2022/08/25 00:37:54;;;;;;;6.17;2.43;;;;;;;22.28;86.48;101879.69;4995792;28;20064;-80
2022/08/25 00:40:24;;;;;;;3.50;2.30;;;;;;;22.28;86.98;101882.38;4971885;28;20707;-82
2022/08/25 00:42:54;;;;;;;3.38;2.53;;;;;;;22.26;86.58;101886.94;5017770;28;20235;-80
2022/08/25 00:45:24;;;;;;;4.28;2.67;;;;;;;22.22;86.35;101876.31;4973023;28;20530;-82
2022/08/25 00:47:52;;;;;;;5.60;2.28;;;;;;;22.19;86.28;101888.91;4991036;28;20289;-81
2022/08/25 00:50:24;;;;;;;7.07;2.85;;;;;;;22.15;86.05;101889.88;5002442;28;20038;-80
2022/08/25 00:52:57;;;;;;;5.28;2.47;;;;;;;22.15;85.85;101881.81;5001349;28;20082;-80
2022/08/25 00:55:38;;;;;;;3.85;2.70;;;;;;;22.13;85.73;101878.31;4942683;28;20041;-80
2022/08/25 00:58:13;;;;;;;5.43;3.15;;;;;;;22.11;86.35;101880.16;5006599;28;20507;-80
2022/08/25 01:00:49;;;;;;;6.35;3.40;;;;;;;22.09;86.47;101879.31;5004168;28;20271;-81
2022/08/25 01:03:19;;;;;;;8.70;3.13;;;;;;;22.05;86.64;101877.66;5003360;28;20049;-79
2022/08/25 01:05:55;;;;;;;4.65;2.78;;;;;;;22.02;86.79;101880.41;4999233;28;20403;-81
2022/08/25 01:08:27;;;;;;;4.43;2.70;;;;;;;21.99;86.45;101884.06;4988965;28;20049;-80
2022/08/25 01:11:01;;;;;;;3.65;2.80;;;;;;;21.97;86.81;101890.44;4966190;28;20033;-82
2022/08/25 01:13:44;;;;;;;3.40;3.10;;;;;;;21.93;87.08;101878.88;4988580;28;20050;-82
2022/08/25 01:16:14;;;;;;;3.60;2.92;;;;;;;21.89;87.14;101884.38;4964423;28;20243;-79
2022/08/25 01:18:55;;;;;;;7.07;3.85;;;;;;;21.86;87.42;101884.47;4997064;28;20037;-80
2022/08/25 01:21:24;;;;;;;7.70;3.40;;;;;;;21.81;87.37;101887.25;5002591;28;20472;-79
2022/08/25 01:23:57;;;;;;;7.60;2.75;;;;;;;21.78;87.27;101888.25;4976544;28;20589;-80
2022/08/25 01:26:31;;;;;;;4.85;2.55;;;;;;;21.74;87.30;101883.88;4949297;28;20050;-80
2022/08/25 01:29:21;;;;;;;3.88;2.55;;;;;;;21.72;87.49;101883.03;4993543;28;20046;-80
2022/08/25 01:32:02;;;;;;;2.90;2.50;;;;;;;21.68;87.70;101886.75;4988501;28;20042;-80
2022/08/25 01:34:35;;;;;;;6.22;2.78;;;;;;;21.65;87.86;101888.63;4985637;28;20042;-78
2022/08/25 01:37:04;;;;;;;4.82;2.47;;;;;;;21.61;87.97;101888.69;4978009;28;20115;-80
2022/08/25 01:39:35;;;;;;;4.85;3.20;;;;;;;21.59;87.81;101893.22;4991655;28;20042;-81
2022/08/25 01:42:10;;;;;;;7.20;3.10;;;;;;;21.59;88.02;101889.66;4963788;28;20632;-80
2022/08/25 01:44:42;;;;;;;5.78;2.65;;;;;;;21.53;88.10;101888.03;4974938;28;20076;-82
2022/08/25 01:47:12;;;;;;;4.65;2.33;;;;;;;21.51;87.91;101886.28;4976556;28;20045;-80
2022/08/25 01:49:41;;;;;;;5.27;2.47;;;;;;;21.50;87.99;101892.59;4986608;28;20029;-80
2022/08/25 01:52:15;;;;;;;4.25;2.55;;;;;;;21.48;87.81;101886.38;4999819;28;20058;-81
2022/08/25 01:54:44;;;;;;;5.82;3.03;;;;;;;21.47;88.38;101887.28;5007771;28;20046;-81
2022/08/25 01:57:12;;;;;;;7.50;2.70;;;;;;;21.43;88.74;101887.31;4966073;28;20287;-80
2022/08/25 01:59:41;;;;;;;4.22;2.53;;;;;;;21.40;88.33;101884.75;5007065;28;20046;-82
2022/08/25 02:02:09;;;;;;;2.65;2.40;;;;;;;21.38;88.77;101881.22;5008047;28;20049;-80
2022/08/25 02:04:38;;;;;;;3.80;3.10;;;;;;;21.35;88.68;101875.03;5003587;28;20045;-79
2022/08/25 02:07:12;;;;;;;3.83;2.40;;;;;;;21.33;88.86;101880.44;4972280;28;20061;-80
2022/08/25 02:09:40;;;;;;;6.20;2.70;;;;;;;21.31;89.30;101876.91;4941766;28;20057;-79
2022/08/25 02:12:08;;;;;;;7.00;2.50;;;;;;;21.28;89.62;101881.47;4955847;28;20050;-79
2022/08/25 02:14:37;;;;;;;3.85;2.50;;;;;;;21.25;89.47;101873.50;4994193;28;20387;-81
2022/08/25 02:17:05;;;;;;;4.35;2.90;;;;;;;21.20;89.49;101879.88;4972015;28;20137;-80
2022/08/25 02:19:34;;;;;;;5.30;2.85;;;;;;;21.17;89.66;101879.06;4999212;28;20069;-80
2022/08/25 02:22:05;;;;;;;4.28;2.88;;;;;;;21.15;89.91;101875.53;4984686;28;20076;-80
2022/08/25 02:24:33;;;;;;;4.80;2.70;;;;;;;21.13;90.11;101877.38;4981722;28;20496;-80
2022/08/25 02:27:03;;;;;;;4.25;3.10;;;;;;;21.10;90.04;101877.47;4989274;28;20050;-80
2022/08/25 02:29:32;;;;;;;7.07;2.83;;;;;;;21.06;89.69;101879.34;4962141;28;20052;-80
2022/08/25 02:32:01;;;;;;;5.82;3.03;;;;;;;21.05;89.74;101874.00;5010614;28;20033;-80
2022/08/25 02:34:30;;;;;;;7.85;2.90;;;;;;;21.01;89.88;101874.06;4983862;28;20400;-80
2022/08/25 02:36:58;;;;;;;5.82;2.88;;;;;;;20.98;89.87;101876.84;4970153;28;20046;-81
2022/08/25 02:39:27;;;;;;;4.60;2.85;;;;;;;20.94;90.28;101880.50;4962221;28;20073;-80
2022/08/25 02:41:55;;;;;;;7.32;3.10;;;;;;;20.92;90.11;101878.78;4965670;28;20373;-81
2022/08/25 02:44:24;;;;;;;5.90;3.33;;;;;;;20.88;90.57;101872.59;4924976;28;20061;-80
2022/08/25 02:46:52;;;;;;;3.95;2.90;;;;;;;20.86;90.76;101873.56;4971145;28;20491;-79
2022/08/25 02:49:21;;;;;;;3.92;3.05;;;;;;;20.83;90.57;101870.06;4971905;28;20391;-79
2022/08/25 02:51:49;;;;;;;5.30;2.50;;;;;;;20.82;90.58;101864.72;4964129;28;20045;-79
2022/08/25 02:54:18;;;;;;;3.72;3.35;;;;;;;20.80;90.75;101870.09;4972183;28;20057;-80
2022/08/25 02:56:47;;;;;;;4.75;2.90;;;;;;;20.78;90.58;101866.59;4975725;28;20042;-80
2022/08/25 02:59:16;;;;;;;4.57;2.97;;;;;;;20.79;90.77;101864.78;4943007;28;20077;-79
2022/08/25 03:01:45;;;;;;;3.13;2.80;;;;;;;20.77;90.76;101866.63;4999623;28;20499;-80
2022/08/25 03:04:14;;;;;;;6.07;3.70;;;;;;;20.74;90.67;101858.69;4970361;28;20078;-80
2022/08/25 03:06:43;;;;;;;7.00;3.20;;;;;;;20.73;90.92;101868.47;4990628;28;20514;-80
2022/08/25 03:09:12;;;;;;;5.45;3.10;;;;;;;20.72;90.99;101863.16;4991737;28;20598;-79
2022/08/25 03:11:40;;;;;;;8.88;3.30;;;;;;;20.70;91.07;101856.97;4993669;28;20042;-80
2022/08/25 03:14:09;;;;;;;6.93;3.53;;;;;;;20.69;91.25;101861.44;4957700;28;22225;-80
2022/08/25 03:16:39;;;;;;;5.93;3.47;;;;;;;20.67;91.64;101857.03;4989409;28;20053;-79
2022/08/25 03:19:10;;;;;;;3.47;3.03;;;;;;;20.63;91.99;101861.59;4994138;28;20049;-81
2022/08/25 03:21:38;;;;;;;5.40;3.15;;;;;;;20.59;92.19;101860.75;4966394;28;20029;-80
2022/08/25 03:24:07;;;;;;;4.00;3.63;;;;;;;20.55;92.23;101853.69;4968387;28;20049;-81
2022/08/25 03:26:54;;;;;;;7.40;3.40;;;;;;;20.54;92.16;101859.94;4966171;28;20041;-79
2022/08/25 03:29:29;;;;;;;8.85;3.78;;;;;;;20.52;92.13;101864.47;5008841;28;20050;-79
2022/08/25 03:31:59;;;;;;;8.45;3.28;;;;;;;20.50;92.88;101865.44;4972538;28;20363;-79
2022/08/25 03:34:29;;;;;;;5.00;3.17;;;;;;;20.45;92.89;101862.81;4988639;28;20102;-80
2022/08/25 03:36:58;;;;;;;5.40;3.73;;;;;;;20.43;92.95;101854.84;4981178;28;20046;-79
2022/08/25 03:39:27;;;;;;;6.40;3.35;;;;;;;20.41;93.51;101861.13;5005194;28;20303;-80
2022/08/25 03:41:56;;;;;;;5.68;3.75;;;;;;;20.37;93.76;101852.28;4976193;28;20045;-80
2022/08/25 03:44:26;;;;;;;6.68;3.60;;;;;;;20.34;93.73;101847.03;4967805;28;20050;-79
2022/08/25 03:46:54;;;;;;;5.95;3.78;;;;;;;20.32;93.96;101848.84;4938393;28;20049;-80
2022/08/25 03:49:23;;;;;;;4.00;3.60;;;;;;;20.30;94.15;101844.44;4986961;28;20053;-79
2022/08/25 03:51:53;;;;;;;7.00;3.85;;;;;;;20.30;94.24;101852.47;4986238;28;20049;-80
2022/08/25 03:54:24;;;;;;;6.10;3.63;;;;;;;20.26;94.41;101843.59;4981962;28;20399;-79
2022/08/25 03:56:53;;;;;;;5.60;4.00;;;;;;;20.23;94.54;101841.03;4985546;28;20439;-79
2022/08/25 03:59:22;;;;;;;10.85;4.25;;;;;;;20.21;94.99;101857.09;5000416;28;20042;-80
2022/08/25 04:01:50;;;;;;;4.32;3.65;;;;;;;20.20;94.96;101849.97;4934458;28;20058;-80
2022/08/25 04:04:22;;;;;;;6.78;4.00;;;;;;;20.17;95.47;101847.38;5000247;28;20053;-80
2022/08/25 04:06:51;;;;;;;9.88;3.83;;;;;;;20.16;95.51;101850.09;5002187;28;20495;-80
2022/08/25 04:09:20;;;;;;;13.48;4.15;;;;;;;20.15;95.96;101842.97;4981607;28;20069;-79
2022/08/25 04:11:50;;;;;;;5.18;3.95;;;;;;;20.13;95.86;101847.47;4987751;28;20049;-80
2022/08/25 04:14:22;;;;;;;6.35;4.03;;;;;;;20.11;96.33;101842.13;4999084;28;20708;-80
2022/08/25 04:16:51;;;;;;;5.35;3.78;;;;;;;20.07;96.33;101845.78;4984834;28;20363;-81
2022/08/25 04:19:20;;;;;;;5.37;3.70;;;;;;;20.06;96.75;101838.69;4995205;28;20054;-79
2022/08/25 04:21:50;;;;;;;8.05;3.90;;;;;;;20.03;96.86;101836.94;4993964;28;20515;-81
2022/08/25 04:24:24;;;;;;;4.22;3.83;;;;;;;20.01;97.07;101846.81;4976811;28;20521;-80
2022/08/25 04:26:52;;;;;;;6.80;4.10;;;;;;;20.00;97.11;101839.69;5013842;28;20412;-80
2022/08/25 04:29:22;;;;;;;8.02;4.28;;;;;;;19.99;97.57;101834.38;4974614;28;20487;-81
2022/08/25 04:31:53;;;;;;;5.07;4.07;;;;;;;19.99;97.97;101837.06;4978031;28;20284;-80
2022/08/25 04:34:24;;;;;;;9.57;3.70;;;;;;;19.97;97.61;101830.84;4964708;28;20045;-79
2022/08/25 04:37:01;;;;;;;6.78;3.95;;;;;;;19.95;98.23;101833.56;4982062;28;20570;-79
2022/08/25 04:39:30;;;;;;;9.93;4.43;;;;;;;19.94;98.39;101841.59;4998088;28;20400;-80
2022/08/25 04:41:59;;;;;;;6.97;4.75;;;;;;;19.93;98.72;101837.19;4986772;28;20046;-80
2022/08/25 04:44:30;;;;;;;9.27;4.63;;;;;;;19.94;98.61;101838.94;5005198;28;20045;-80
2022/08/25 04:47:00;;;;;;;5.07;4.47;;;;;;;19.93;99.18;101830.03;4998656;28;20535;-80
2022/08/25 04:49:29;;;;;;;6.13;4.20;;;;;;;19.92;99.21;101832.72;4977088;28;20057;-80
2022/08/25 04:51:59;;;;;;;5.57;4.63;;;;;;;19.90;99.29;101831.88;4978695;28;20042;-80
2022/08/25 04:54:28;;;;;;;11.80;5.70;;;;;;;19.91;99.37;101828.31;4978530;28;20058;-80
2022/08/25 04:57:04;;;;;;;5.25;4.75;;;;;;;19.92;99.58;101830.06;4963723;28;20030;-80
2022/08/25 04:59:33;;;;;;;7.03;4.60;;;;;;;19.92;99.86;101824.72;4999481;28;20050;-82
2022/08/25 05:02:01;;;;;;;6.15;4.35;;;;;;;19.94;99.77;101826.44;5000561;28;20335;-79
2022/08/25 05:04:33;;;;;;;8.68;5.13;;;;;;;19.94;100.00;101821.06;4934180;28;20523;-81
2022/08/25 05:07:03;;;;;;;8.77;4.80;;;;;;;19.96;99.89;101813.03;4989938;28;20072;-81
2022/08/25 05:09:31;;;;;;;6.53;4.82;;;;;;;19.98;100.00;101814.78;4982625;28;20514;-82
2022/08/25 05:12:01;;;;;;;5.78;4.78;;;;;;;19.99;100.00;101816.53;4987708;28;20068;-82
2022/08/25 05:14:31;;;;;;;10.82;5.40;;;;;;;20.01;100.00;101806.66;4991766;28;20049;-82
2022/08/25 05:16:59;;;;;;;8.52;5.30;;;;;;;20.03;100.00;101804.84;4973964;28;20620;-82
2022/08/25 05:19:28;;;;;;;9.45;4.60;;;;;;;20.03;100.00;101807.50;4959604;28;20034;-83
2022/08/25 05:21:57;;;;;;;9.13;5.30;;;;;;;20.04;100.00;101801.28;5007255;28;20061;-82
2022/08/25 05:24:26;;;;;;;8.60;5.13;;;;;;;20.05;100.00;101811.03;5022862;28;20046;-82
2022/08/25 05:26:56;;;;;;;6.68;5.78;;;;;;;20.08;100.00;101809.25;4975905;28;20278;-82
2022/08/25 05:29:24;;;;;;;11.77;6.32;;;;;;;20.10;100.00;101816.31;5005022;28;20041;-82
2022/08/25 05:31:53;;;;;;;10.35;5.85;;;;;;;20.12;100.00;101809.13;4980928;28;20056;-82
2022/08/25 05:34:22;;;;;;;8.23;5.22;;;;;;;20.15;100.00;101813.53;5002324;28;20050;-81
2022/08/25 05:36:50;;;;;;;11.40;5.43;;;;;;;20.17;100.00;101817.94;4978452;28;20329;-82
2022/08/25 05:39:19;;;;;;;8.30;5.53;;;;;;;20.19;100.00;101816.13;4973909;28;20526;-81
2022/08/25 05:41:47;;;;;;;11.80;5.80;;;;;;;20.22;100.00;101818.72;4984222;28;20054;-82
2022/08/25 05:44:16;;;;;;;11.13;5.30;;;;;;;20.23;100.00;101822.28;4960524;28;20504;-81
2022/08/25 05:46:48;;;;;;;5.80;5.05;;;;;;;20.25;100.00;101825.81;4979182;28;20058;-82
2022/08/25 05:49:18;;;;;;;12.05;5.35;;;;;;;20.27;100.00;101829.34;4974703;28;20041;-82
2022/08/25 05:51:46;;;;;;;8.18;5.97;;;;;;;20.29;100.00;101821.28;4920039;28;23377;-81
2022/08/25 05:54:15;;;;;;;7.05;5.55;;;;;;;20.33;100.00;101828.31;5007742;28;20042;-85
2022/08/25 05:56:44;;;;;;;10.82;5.30;;;;;;;20.34;100.00;101843.44;4981294;28;20286;-84
2022/08/25 05:59:12;;;;;;;7.15;4.75;;;;;;;20.36;100.00;101831.81;4964604;28;20057;-86
2022/08/25 06:04:28;;;;;;;9.35;5.55;;;;;;;20.45;100.00;101831.59;4971885;28;20042;-89
2022/08/25 06:06:56;;;;;;;8.55;5.35;;;;;;;20.52;100.00;101810.91;4979755;28;20510;-87
2022/08/25 06:09:25;;;;;;;12.00;5.80;;;;;;;20.66;100.00;101823.13;4971390;28;20034;-86
2022/08/25 06:11:53;;;;;;;8.52;5.50;;;;;;;20.80;100.00;101827.25;4975398;28;20053;-88
2022/08/25 06:14:24;;;;;;;7.03;5.50;;;;;;;20.84;100.00;101826.25;4977853;28;20050;-87
2022/08/25 06:16:53;;;;;;;9.00;5.43;;;;;;;20.90;100.00;101824.34;4982490;28;20030;-88
2022/08/25 06:19:22;;;;;;;7.85;5.65;;;;;;;20.95;100.00;101825.13;4979774;28;20423;-87
2022/08/25 06:21:55;;;;;;;8.70;6.57;;;;;;;21.02;100.00;101816.03;4980058;28;20046;-86
2022/08/25 06:24:25;;;;;;;8.40;5.80;;;;;;;21.12;100.00;101816.66;4979198;28;20030;-87
2022/08/25 06:26:55;;;;;;;10.68;6.25;;;;;;;21.20;100.00;101817.34;4989926;28;20041;-87
2022/08/25 06:29:25;;;;;;;11.10;6.65;;;;;;;21.37;99.43;101817.78;5000714;28;20046;-88
2022/08/25 06:31:54;;;;;;;7.85;5.85;;;;;;;21.50;99.08;101817.50;4982221;28;20050;-87
2022/08/25 06:34:22;;;;;;;9.63;6.20;;;;;;;21.57;98.98;101809.25;4983250;28;20053;-88
2022/08/25 06:36:51;;;;;;;11.57;7.15;;;;;;;21.60;98.96;101813.63;4957892;28;20656;-86
2022/08/25 06:39:21;;;;;;;10.52;5.90;;;;;;;21.63;98.74;101815.38;4972974;28;20057;-87
2022/08/25 06:41:53;;;;;;;14.55;6.40;;;;;;;21.65;98.67;101819.75;4994416;28;20038;-89
2022/08/25 06:44:26;;;;;;;9.02;5.80;;;;;;;21.68;98.93;101817.00;4971337;28;20022;-86
2022/08/25 06:46:54;;;;;;;11.00;5.85;;;;;;;21.73;98.76;101815.03;4980565;28;20516;-81
2022/08/25 06:49:26;;;;;;;8.95;5.60;;;;;;;21.77;99.17;101819.41;4958884;28;20062;-80
2022/08/25 06:51:57;;;;;;;9.32;6.53;;;;;;;21.83;99.08;101828.19;5019107;28;20061;-81
2022/08/25 06:54:25;;;;;;;7.10;5.53;;;;;;;21.91;98.28;101821.72;4956271;28;20704;-82
2022/08/25 06:56:53;;;;;;;12.63;6.75;;;;;;;22.17;97.45;101815.59;4986802;28;20047;-80
2022/08/25 06:59:22;;;;;;;13.32;6.47;;;;;;;22.37;96.42;101819.50;4966408;28;20046;-82
2022/08/25 07:01:51;;;;;;;11.68;6.38;;;;;;;22.49;95.96;101816.41;4977608;28;20586;-81
2022/08/25 07:04:20;;;;;;;8.05;7.10;;;;;;;22.69;96.22;101814.91;4980198;28;20053;-81
2022/08/25 07:06:49;;;;;;;11.18;5.95;;;;;;;22.97;95.08;101815.75;5009995;28;20072;-81
2022/08/25 07:09:18;;;;;;;8.40;5.30;;;;;;;23.09;93.68;101814.50;4959579;28;20057;-81
2022/08/25 07:11:46;;;;;;;10.70;7.45;;;;;;;23.07;92.77;101808.28;4981461;28;20043;-80
2022/08/25 07:14:17;;;;;;;15.05;6.88;;;;;;;22.97;92.68;101813.06;5002695;28;20045;-83
2022/08/25 07:16:46;;;;;;;9.07;5.93;;;;;;;22.97;93.84;101815.75;4973670;28;20880;-81
2022/08/25 07:19:19;;;;;;;11.95;6.47;;;;;;;23.00;93.36;101811.22;4992241;28;20042;-83
2022/08/25 07:21:51;;;;;;;10.98;6.63;;;;;;;23.00;92.07;101820.16;4945393;28;20050;-81
2022/08/25 07:24:20;;;;;;;16.48;7.18;;;;;;;23.00;92.43;101812.09;4993675;28;20038;-80
2022/08/25 07:26:49;;;;;;;10.00;6.67;;;;;;;23.02;92.39;101818.28;4949202;28;20064;-81
2022/08/25 07:29:22;;;;;;;14.15;7.43;;;;;;;23.03;92.65;101816.50;4998680;28;20293;-81
2022/08/25 07:32:00;;;;;;;12.88;6.07;;;;;;;23.11;93.32;101818.00;4977271;28;20034;-81
2022/08/25 07:37:21;;;;;;;11.02;6.25;;;;;;;23.30;93.00;101812.88;4997378;28;20810;-82
2022/08/25 07:40:32;;;;;;;13.10;6.63;;;;;;;23.35;92.90;101815.41;4971610;28;20415;-80
2022/08/25 07:43:04;;;;;;;12.27;6.22;;;;;;;23.38;92.97;101820.66;4997795;28;20054;-80
2022/08/25 07:45:36;;;;;;;11.07;5.93;;;;;;;23.41;92.65;101817.88;4986171;28;20039;-81
2022/08/25 07:48:12;;;;;;;8.82;6.55;;;;;;;23.45;92.57;101824.03;4994648;28;21217;-80
2022/08/25 07:50:47;;;;;;;9.90;6.82;;;;;;;23.48;93.27;101823.94;4996133;28;20045;-81
2022/08/25 07:53:15;;;;;;;10.77;7.07;;;;;;;23.55;92.91;101820.06;4981735;28;20491;-80
2022/08/25 07:55:44;;;;;;;10.55;6.50;;;;;;;23.61;92.39;101816.28;4938873;28;20053;-81
2022/08/25 07:58:14;;;;;;;11.57;6.22;;;;;;;23.67;92.40;101827.72;4994717;28;20447;-82
2022/08/25 08:00:46;;;;;;;11.13;7.68;;;;;;;23.76;93.21;101821.09;4964399;28;20515;-83
2022/08/25 08:03:15;;;;;;;13.23;9.00;;;;;;;23.82;92.53;101822.72;4984158;28;20049;-83
2022/08/25 08:06:08;;;;;;;17.92;8.88;;;;;;;23.85;92.20;101825.31;4961129;28;20042;-83
2022/08/25 08:08:43;;;;;;;12.75;8.02;;;;;;;23.87;91.55;101824.31;4984947;28;22470;-84
2022/08/25 08:11:16;;;;;;;12.25;7.85;;;;;;;23.91;92.26;101820.59;4961491;28;20046;-83
2022/08/25 08:13:47;;;;;;;13.88;9.75;;;;;;;23.94;91.47;101825.84;4955883;28;20057;-83
2022/08/25 08:16:19;;;;;;;12.10;7.88;;;;;;;23.96;92.26;101817.72;4986844;28;20534;-83
2022/08/25 08:18:48;;;;;;;11.50;9.57;;;;;;;24.05;91.66;101830.84;4997565;28;20038;-83
2022/08/25 08:21:31;;;;;;;13.93;8.43;;;;;;;24.18;91.33;101824.97;4993312;28;20050;-83
2022/08/25 08:24:00;;;;;;;11.07;8.10;;;;;;;24.27;90.69;101824.63;4988480;28;20522;-83
2022/08/25 08:26:33;;;;;;;20.60;7.95;;;;;;;24.36;90.64;101832.34;4950761;28;20026;-82
2022/08/25 08:29:22;;;;;;;10.10;7.13;;;;;;;24.48;90.82;101822.91;4987213;28;20039;-81
2022/08/25 08:31:50;;;;;;;8.52;6.50;;;;;;;24.64;91.70;101831.28;4977677;28;20049;-82
2022/08/25 08:34:18;;;;;;;13.75;7.35;;;;;;;24.82;89.82;101824.25;4960737;28;20038;-83
2022/08/25 08:36:52;;;;;;;9.27;6.32;;;;;;;24.99;89.71;101823.56;4967671;28;20046;-82
2022/08/25 08:39:22;;;;;;;8.70;6.95;;;;;;;25.12;88.73;101819.41;4950347;28;20057;-84
2022/08/25 08:42:28;;;;;;;15.10;8.23;;;;;;;25.27;88.59;101816.13;4972766;28;20058;-83
2022/08/25 08:45:27;;;;;;;14.40;8.23;;;;;;;25.44;88.94;101822.56;4985893;28;20039;-83
2022/08/25 08:48:08;;;;;;;16.60;7.25;;;;;;;25.60;87.42;101815.56;4970831;28;20050;-82
2022/08/25 08:51:09;;;;;;;11.63;7.55;;;;;;;25.74;86.26;101819.47;4945392;28;20074;-82
2022/08/25 08:53:54;;;;;;;7.75;6.82;;;;;;;25.79;86.34;101812.91;4949502;28;20057;-83
2022/08/25 08:56:28;;;;;;;10.23;6.15;;;;;;;25.92;86.03;101818.66;4977109;28;20049;-83
2022/08/25 08:59:01;;;;;;;11.90;6.38;;;;;;;25.95;85.32;101814.94;4930493;28;20042;-82
2022/08/25 09:01:58;;;;;;;13.13;7.72;;;;;;;25.98;85.09;101804.88;4939071;28;20936;-83
2022/08/25 09:04:47;;;;;;;12.23;8.30;;;;;;;26.04;84.72;101801.88;4944618;28;20034;-84
2022/08/25 09:07:26;;;;;;;12.95;7.97;;;;;;;25.99;84.11;101803.03;4975547;28;20043;-83
2022/08/25 09:09:56;;;;;;;12.10;7.25;;;;;;;25.97;84.75;101792.28;4954586;28;20046;-82
2022/08/25 09:12:39;;;;;;;10.85;7.30;;;;;;;26.04;85.46;101790.19;4970702;28;20059;-85
2022/08/25 09:15:19;;;;;;;14.45;6.70;;;;;;;26.11;84.73;101780.00;4957274;28;20051;-85
2022/08/25 09:18:14;;;;;;;14.10;6.88;;;;;;;26.11;83.35;101778.16;4976512;28;20046;-83
2022/08/25 09:20:58;;;;;;;15.32;6.95;;;;;;;26.03;83.46;101781.22;4957377;28;20038;-83
2022/08/25 09:23:32;;;;;;;13.63;7.45;;;;;;;26.02;83.62;101774.06;4966397;28;20046;-85
2022/08/25 09:26:34;;;;;;;12.57;6.85;;;;;;;26.06;84.66;101781.06;4948707;28;20050;-85
2022/08/25 09:29:13;;;;;;;9.57;6.10;;;;;;;26.19;85.67;101777.81;4961872;28;20051;-86
2022/08/25 09:31:47;;;;;;;9.85;5.63;;;;;;;26.14;85.42;101763.63;4969174;28;20611;-85
2022/08/25 09:34:19;;;;;;;13.77;6.13;;;;;;;26.15;86.50;101762.69;4966260;28;20065;-85
2022/08/25 09:36:51;;;;;;;8.68;6.30;;;;;;;26.18;86.78;101763.44;4965633;28;20551;-85
2022/08/25 09:39:21;;;;;;;8.80;5.85;;;;;;;26.19;85.47;101756.19;4986734;28;20042;-84
2022/08/25 09:41:57;;;;;;;16.90;6.07;;;;;;;26.18;87.15;101749.91;4966982;28;20030;-83
2022/08/25 09:44:32;;;;;;;10.65;5.18;;;;;;;26.28;87.40;101752.19;4968510;28;20053;-84
2022/08/25 09:47:06;;;;;;;13.43;5.80;;;;;;;26.26;87.05;101749.53;4971258;28;20534;-84
2022/08/25 09:49:42;;;;;;;11.45;6.03;;;;;;;26.24;86.45;101746.06;4999281;28;20053;-84
2022/08/25 09:52:26;;;;;;;12.55;5.57;;;;;;;26.24;86.22;101735.25;4998729;28;20035;-83
2022/08/25 09:54:56;;;;;;;8.30;5.72;;;;;;;26.25;86.42;101731.56;5004613;28;20034;-83
2022/08/25 09:57:34;;;;;;;7.95;5.50;;;;;;;26.29;86.80;101735.88;5000951;28;20053;-85
2022/08/25 10:00:20;;;;;;;10.30;6.47;;;;;;;26.34;84.93;101722.16;4953866;28;20038;-83
2022/08/25 10:03:03;;;;;;;12.88;5.18;;;;;;;26.30;84.55;101721.44;5008494;28;20046;-83
2022/08/25 10:05:38;;;;;;;11.20;5.20;;;;;;;26.32;84.91;101721.34;4986504;28;20744;-83
2022/08/25 10:08:21;;;;;;;8.38;5.15;;;;;;;26.29;85.01;101719.66;4988572;28;20507;-83
2022/08/25 10:10:56;;;;;;;12.90;5.40;;;;;;;26.34;85.21;101720.31;4996877;28;20046;-84
2022/08/25 10:13:47;;;;;;;9.02;4.88;;;;;;;26.39;85.44;101710.16;4983206;28;20038;-85
2022/08/25 10:16:25;;;;;;;8.20;5.82;;;;;;;26.42;84.43;101715.41;4967694;28;20491;-84
2022/08/25 10:19:19;;;;;;;8.68;5.40;;;;;;;26.46;83.84;101710.72;4996611;28;20053;-85
2022/08/25 10:22:08;;;;;;;5.63;5.05;;;;;;;26.48;82.00;101711.50;4987553;28;20264;-83
2022/08/25 10:24:39;;;;;;;5.72;4.28;;;;;;;26.45;83.81;101707.16;4972519;28;20514;-82
2022/08/25 10:27:36;;;;;;;7.10;4.63;;;;;;;26.53;84.63;101701.34;4993769;28;20499;-84
2022/08/25 10:30:26;;;;;;;8.50;4.38;;;;;;;26.64;83.83;101701.72;4999224;28;20496;-83
2022/08/25 10:33:13;;;;;;;11.93;5.95;;;;;;;26.71;81.93;101694.19;4964154;28;20049;-83
2022/08/25 10:36:22;;;;;;;4.82;4.28;;;;;;;26.79;83.43;101682.97;4983256;28;20057;-83
2022/08/25 10:38:59;;;;;;;11.45;5.93;;;;;;;26.89;83.45;101684.22;4984227;28;20293;-84
2022/08/25 10:41:53;;;;;;;6.55;4.80;;;;;;;26.95;82.61;101683.03;4968429;28;20391;-83
2022/08/25 10:47:30;;;;;;;5.55;4.93;;;;;;;27.11;82.51;101661.44;4984469;28;20038;-84
2022/08/25 10:50:28;;;;;;;7.25;4.70;;;;;;;27.23;81.41;101655.38;5011623;28;20048;-83
2022/08/25 10:53:19;;;;;;;6.72;4.78;;;;;;;27.25;80.11;101649.91;4987834;28;20066;-84
2022/08/25 10:56:08;;;;;;;7.85;4.82;;;;;;;27.28;81.01;101647.03;4976728;28;20041;-84
2022/08/25 10:58:55;;;;;;;8.27;4.75;;;;;;;27.31;80.35;101641.47;4958722;28;20157;-83
2022/08/25 11:01:45;;;;;;;6.53;4.72;;;;;;;27.35;79.71;101646.66;4979290;28;20049;-85
2022/08/25 11:04:47;;;;;;;4.25;3.75;;;;;;;27.44;79.90;101638.97;4962196;28;20053;-84
2022/08/25 11:07:23;;;;;;;8.63;4.43;;;;;;;27.55;79.45;101642.81;5000801;28;20059;-84
2022/08/25 11:09:58;;;;;;;8.13;4.88;;;;;;;27.63;78.76;101638.81;4961310;28;20081;-84
2022/08/25 11:12:34;;;;;;;5.63;4.15;;;;;;;27.71;74.77;101642.84;4980187;28;20045;-83
2022/08/25 11:15:09;;;;;;;9.60;4.50;;;;;;;27.74;78.69;101642.66;4995440;28;20042;-83
2022/08/25 11:18:01;;;;;;;6.32;3.97;;;;;;;27.81;75.68;101635.94;4986599;28;20042;-82
2022/08/25 11:21:00;;;;;;;5.60;3.88;;;;;;;27.88;74.87;101638.28;4977520;28;20049;-82
2022/08/25 11:23:37;;;;;;;6.30;3.78;;;;;;;27.87;75.64;101637.44;4958234;28;20057;-81
2022/08/25 11:26:16;;;;;;;5.40;4.32;;;;;;;27.97;74.08;101629.66;4985231;28;20042;-82
2022/08/25 11:28:56;;;;;;;8.43;3.85;;;;;;;27.97;73.57;101630.53;4979533;28;20351;-81
2022/08/25 11:31:27;;;;;;;8.90;4.25;;;;;;;28.05;73.93;101623.81;4982453;28;20034;-81
2022/08/25 11:33:57;;;;;;;8.30;3.45;;;;;;;28.15;73.81;101623.19;5008199;28;20046;-81
2022/08/25 11:36:31;;;;;;;7.88;4.30;;;;;;;28.19;73.07;101616.63;4962294;28;20506;-80
2022/08/25 11:39:29;;;;;;;6.20;3.55;;;;;;;28.31;73.66;101625.84;4987217;28;20034;-83
2022/08/25 11:42:41;;;;;;;6.97;3.80;;;;;;;28.36;71.00;101617.47;5007293;28;20042;-83
2022/08/25 11:45:25;;;;;;;8.95;3.67;;;;;;;28.41;73.48;101612.63;4985938;28;20042;-82
2022/08/25 11:48:23;;;;;;;5.47;3.55;;;;;;;28.53;71.56;101611.06;4982460;28;20053;-84
2022/08/25 11:50:59;;;;;;;6.22;3.80;;;;;;;28.63;72.94;101604.09;4946786;28;20058;-81
2022/08/25 11:53:31;;;;;;;7.97;3.67;;;;;;;28.70;71.29;101612.75;5002347;28;20053;-81
2022/08/25 11:56:05;;;;;;;7.60;3.40;;;;;;;28.71;70.99;101606.34;4997603;28;20403;-82
2022/08/25 11:58:48;;;;;;;6.70;3.53;;;;;;;28.72;68.91;101608.09;4980651;28;20051;-83
2022/08/25 12:01:39;;;;;;;6.63;3.58;;;;;;;28.74;67.37;101604.31;4977265;28;20048;-83